sensor_id;sensor_type;location;lat;lon;timestamp;pressure;altitude;pressure_sealevel;temperature;humidity
85649;BME280;76075;52.476;13.124;2024-03-23T00:53:58;100325.13;;;19.70;48.60
85649;BME280;76075;52.476;13.124;2024-03-23T00:54:58;100325.13;;;19.70;48.63
85649;BME280;76075;52.476;13.124;2024-03-23T00:55:58;100316.53;;;19.70;48.56
85649;BME280;76075;52.476;13.124;2024-03-23T00:56:59;100310.78;;;19.70;48.61
85649;BME280;76075;52.476;13.124;2024-03-23T00:57:59;100315.78;;;19.69;48.69
85649;BME280;76075;52.476;13.124;2024-03-23T00:59:00;100317.16;;;19.68;48.79
85649;BME280;76075;52.476;13.124;2024-03-23T01:00:00;100312.19;;;19.69;48.83
85649;BME280;76075;52.476;13.124;2024-03-23T01:01:00;100307.78;;;19.67;48.76
85649;BME280;76075;52.476;13.124;2024-03-23T01:02:02;100312.19;;;19.69;48.63
85649;BME280;76075;52.476;13.124;2024-03-23T01:03:03;100307.91;;;19.70;48.72
85649;BME280;76075;52.476;13.124;2024-03-23T01:04:03;100312.19;;;19.69;48.61
85649;BME280;76075;52.476;13.124;2024-03-23T01:05:04;100307.91;;;19.70;48.75
85649;BME280;76075;52.476;13.124;2024-03-23T01:06:04;100301.44;;;19.69;48.44
85649;BME280;76075;52.476;13.124;2024-03-23T01:07:04;100309.31;;;19.69;48.73
85649;BME280;76075;52.476;13.124;2024-03-23T01:08:05;100312.91;;;19.69;48.54
85649;BME280;76075;52.476;13.124;2024-03-23T01:09:05;100302.16;;;19.70;48.71
85649;BME280;76075;52.476;13.124;2024-03-23T01:10:06;100311.44;;;19.68;48.74
85649;BME280;76075;52.476;13.124;2024-03-23T01:11:06;100306.44;;;19.69;48.63
85649;BME280;76075;52.476;13.124;2024-03-23T01:12:07;100304.91;;;19.67;48.63
85649;BME280;76075;52.476;13.124;2024-03-23T01:13:07;100304.91;;;19.67;48.57
85649;BME280;76075;52.476;13.124;2024-03-23T01:14:08;100309.31;;;19.69;48.62
85649;BME280;76075;52.476;13.124;2024-03-23T01:15:08;100300.69;;;19.69;48.67
85649;BME280;76075;52.476;13.124;2024-03-23T01:16:08;100300.69;;;19.69;48.65
85649;BME280;76075;52.476;13.124;2024-03-23T01:17:09;100309.31;;;19.69;48.53
85649;BME280;76075;52.476;13.124;2024-03-23T01:18:09;100298.44;;;19.67;48.45
85649;BME280;76075;52.476;13.124;2024-03-23T01:19:10;100299.94;;;19.68;48.58
85649;BME280;76075;52.476;13.124;2024-03-23T01:20:10;100299.19;;;19.67;48.62
85649;BME280;76075;52.476;13.124;2024-03-23T01:21:10;100304.19;;;19.67;48.57
85649;BME280;76075;52.476;13.124;2024-03-23T01:22:11;100294.84;;;19.66;48.64
85649;BME280;76075;52.476;13.124;2024-03-23T01:23:11;100296.31;;;19.67;48.56
85649;BME280;76075;52.476;13.124;2024-03-23T01:24:12;100289.81;;;19.67;48.49
85649;BME280;76075;52.476;13.124;2024-03-23T01:25:13;100291.97;;;19.66;48.36
85649;BME280;76075;52.476;13.124;2024-03-23T01:26:13;100289.09;;;19.66;48.59
85649;BME280;76075;52.476;13.124;2024-03-23T01:27:13;100279.06;;;19.67;48.63
85649;BME280;76075;52.476;13.124;2024-03-23T01:28:14;100266.13;;;19.66;48.51
85649;BME280;76075;52.476;13.124;2024-03-23T01:29:15;100267.53;;;19.65;48.63
85649;BME280;76075;52.476;13.124;2024-03-23T01:30:15;100261.78;;;19.65;48.73
85649;BME280;76075;52.476;13.124;2024-03-23T01:31:16;100261.03;;;19.65;48.59
85649;BME280;76075;52.476;13.124;2024-03-23T01:32:16;100266.75;;;19.65;48.67
85649;BME280;76075;52.476;13.124;2024-03-23T01:33:17;100261.78;;;19.65;48.83
85649;BME280;76075;52.476;13.124;2024-03-23T01:34:17;100256.78;;;19.66;48.59
85649;BME280;76075;52.476;13.124;2024-03-23T01:35:17;100267.53;;;19.65;48.64
85649;BME280;76075;52.476;13.124;2024-03-23T01:36:18;100268.16;;;19.64;48.67
85649;BME280;76075;52.476;13.124;2024-03-23T01:37:18;100276.78;;;19.64;48.67
85649;BME280;76075;52.476;13.124;2024-03-23T01:38:19;100264.56;;;19.63;48.63
85649;BME280;76075;52.476;13.124;2024-03-23T01:39:19;100262.34;;;19.62;48.64
85649;BME280;76075;52.476;13.124;2024-03-23T01:40:20;100261.69;;;19.63;48.70
85649;BME280;76075;52.476;13.124;2024-03-23T01:41:20;100265.31;;;19.64;48.53
85649;BME280;76075;52.476;13.124;2024-03-23T01:42:21;100248.06;;;19.64;48.61
85649;BME280;76075;52.476;13.124;2024-03-23T01:43:21;100258.81;;;19.63;48.63
85649;BME280;76075;52.476;13.124;2024-03-23T01:44:22;100255.94;;;19.63;48.61
85649;BME280;76075;52.476;13.124;2024-03-23T01:45:22;100265.94;;;19.62;48.49
85649;BME280;76075;52.476;13.124;2024-03-23T01:46:23;100267.44;;;19.63;48.66
85649;BME280;76075;52.476;13.124;2024-03-23T01:47:24;100262.44;;;19.64;48.57
85649;BME280;76075;52.476;13.124;2024-03-23T01:48:24;100255.88;;;19.61;48.74
85649;BME280;76075;52.476;13.124;2024-03-23T01:49:25;100257.34;;;19.62;48.60
85649;BME280;76075;52.476;13.124;2024-03-23T01:50:25;100247.34;;;19.63;48.60
85649;BME280;76075;52.476;13.124;2024-03-23T01:51:27;100247.34;;;19.63;48.59
85649;BME280;76075;52.476;13.124;2024-03-23T01:52:27;100243.72;;;19.63;48.63
85649;BME280;76075;52.476;13.124;2024-03-23T01:53:28;100237.22;;;19.62;48.47
85649;BME280;76075;52.476;13.124;2024-03-23T01:54:28;100251.59;;;19.62;48.58
85649;BME280;76075;52.476;13.124;2024-03-23T01:55:29;100251.59;;;19.62;48.55
85649;BME280;76075;52.476;13.124;2024-03-23T01:56:30;100245.13;;;19.62;48.58
85649;BME280;76075;52.476;13.124;2024-03-23T01:57:33;100250.84;;;19.62;48.48
85649;BME280;76075;52.476;13.124;2024-03-23T01:58:33;100242.97;;;19.62;48.52
85649;BME280;76075;52.476;13.124;2024-03-23T01:59:33;100231.41;;;19.60;48.44
85649;BME280;76075;52.476;13.124;2024-03-23T02:00:34;100243.66;;;19.61;48.67
85649;BME280;76075;52.476;13.124;2024-03-23T02:01:34;100244.38;;;19.61;48.50
85649;BME280;76075;52.476;13.124;2024-03-23T02:02:36;100244.38;;;19.61;48.68
85649;BME280;76075;52.476;13.124;2024-03-23T02:03:37;100242.25;;;19.62;48.54
85649;BME280;76075;52.476;13.124;2024-03-23T02:04:37;100237.22;;;19.62;48.34
85649;BME280;76075;52.476;13.124;2024-03-23T02:05:38;100250.13;;;19.61;48.45
85649;BME280;76075;52.476;13.124;2024-03-23T02:06:38;100232.91;;;19.61;48.50
85649;BME280;76075;52.476;13.124;2024-03-23T02:07:39;100238.63;;;19.61;48.62
85649;BME280;76075;52.476;13.124;2024-03-23T02:08:40;100232.91;;;19.61;48.52
85649;BME280;76075;52.476;13.124;2024-03-23T02:09:41;100245.75;;;19.60;48.52
85649;BME280;76075;52.476;13.124;2024-03-23T02:10:41;100237.16;;;19.60;48.51
85649;BME280;76075;52.476;13.124;2024-03-23T02:11:42;100234.28;;;19.60;48.54
85649;BME280;76075;52.476;13.124;2024-03-23T02:12:43;100229.94;;;19.59;48.57
85649;BME280;76075;52.476;13.124;2024-03-23T02:13:43;100232.06;;;19.59;48.57
85649;BME280;76075;52.476;13.124;2024-03-23T02:14:44;100235.69;;;19.59;48.56
85649;BME280;76075;52.476;13.124;2024-03-23T02:15:44;100232.81;;;19.59;48.44
85649;BME280;76075;52.476;13.124;2024-03-23T02:16:45;100233.53;;;19.60;48.45
85649;BME280;76075;52.476;13.124;2024-03-23T02:17:46;100233.53;;;19.60;48.49
85649;BME280;76075;52.476;13.124;2024-03-23T02:18:47;100229.94;;;19.59;48.37
85649;BME280;76075;52.476;13.124;2024-03-23T02:19:47;100231.31;;;19.58;48.58
85649;BME280;76075;52.476;13.124;2024-03-23T02:20:48;100227.06;;;19.59;48.46
85649;BME280;76075;52.476;13.124;2024-03-23T02:21:48;100221.97;;;19.58;48.49
85649;BME280;76075;52.476;13.124;2024-03-23T02:22:52;100217.72;;;19.59;48.44
85649;BME280;76075;52.476;13.124;2024-03-23T02:23:53;100206.88;;;19.57;48.53
85649;BME280;76075;52.476;13.124;2024-03-23T02:24:53;100214.09;;;19.58;48.60
85649;BME280;76075;52.476;13.124;2024-03-23T02:25:54;100206.88;;;19.57;48.55
85649;BME280;76075;52.476;13.124;2024-03-23T02:26:54;100198.25;;;19.57;48.55
85649;BME280;76075;52.476;13.124;2024-03-23T02:27:54;100204.00;;;19.57;48.64
85649;BME280;76075;52.476;13.124;2024-03-23T02:28:55;100197.53;;;19.57;48.56
85649;BME280;76075;52.476;13.124;2024-03-23T02:29:55;100202.53;;;19.56;48.57
85649;BME280;76075;52.476;13.124;2024-03-23T02:30:56;100204.66;;;19.56;48.53
85649;BME280;76075;52.476;13.124;2024-03-23T02:31:56;100201.06;;;19.55;48.67
85649;BME280;76075;52.476;13.124;2024-03-23T02:32:59;100203.28;;;19.57;48.52
85649;BME280;76075;52.476;13.124;2024-03-23T02:33:59;100206.16;;;19.57;48.39
85649;BME280;76075;52.476;13.124;2024-03-23T02:34:59;100204.00;;;19.57;48.57
85649;BME280;76075;52.476;13.124;2024-03-23T02:36:00;100204.66;;;19.56;48.54
85649;BME280;76075;52.476;13.124;2024-03-23T02:37:00;100206.81;;;19.55;48.58
85649;BME280;76075;52.476;13.124;2024-03-23T02:38:00;100211.09;;;19.54;48.50
85649;BME280;76075;52.476;13.124;2024-03-23T02:39:01;100206.72;;;19.53;48.54
85649;BME280;76075;52.476;13.124;2024-03-23T02:40:01;100203.84;;;19.53;48.54
85649;BME280;76075;52.476;13.124;2024-03-23T02:41:03;100203.84;;;19.53;48.59
85649;BME280;76075;52.476;13.124;2024-03-23T02:42:03;100203.13;;;19.53;48.44
85649;BME280;76075;52.476;13.124;2024-03-23T02:43:04;100200.97;;;19.53;48.49
85649;BME280;76075;52.476;13.124;2024-03-23T02:44:04;100198.09;;;19.53;48.64
85649;BME280;76075;52.476;13.124;2024-03-23T02:45:05;100200.25;;;19.53;48.32
85649;BME280;76075;52.476;13.124;2024-03-23T02:46:05;100193.09;;;19.54;48.44
85649;BME280;76075;52.476;13.124;2024-03-23T02:47:06;100194.56;;;19.55;48.46
85649;BME280;76075;52.476;13.124;2024-03-23T02:48:06;100188.09;;;19.54;48.45
85649;BME280;76075;52.476;13.124;2024-03-23T02:49:07;100187.34;;;19.54;48.50
85649;BME280;76075;52.476;13.124;2024-03-23T02:50:07;100194.50;;;19.53;48.58
85649;BME280;76075;52.476;13.124;2024-03-23T02:51:09;100186.63;;;19.53;48.48
85649;BME280;76075;52.476;13.124;2024-03-23T02:52:09;100189.50;;;19.53;48.48
85649;BME280;76075;52.476;13.124;2024-03-23T02:53:10;100196.63;;;19.52;48.54
85649;BME280;76075;52.476;13.124;2024-03-23T02:54:10;100180.88;;;19.53;48.39
85649;BME280;76075;52.476;13.124;2024-03-23T02:55:11;100186.63;;;19.53;48.47
85649;BME280;76075;52.476;13.124;2024-03-23T02:56:11;100197.38;;;19.53;48.49
85649;BME280;76075;52.476;13.124;2024-03-23T02:57:16;100186.63;;;19.53;48.41
85649;BME280;76075;52.476;13.124;2024-03-23T02:58:16;100185.88;;;19.53;48.54
85649;BME280;76075;52.476;13.124;2024-03-23T02:59:16;100185.16;;;19.52;48.46
85649;BME280;76075;52.476;13.124;2024-03-23T03:00:17;100184.41;;;19.52;48.45
85649;BME280;76075;52.476;13.124;2024-03-23T03:01:17;100179.41;;;19.52;48.48
85649;BME280;76075;52.476;13.124;2024-03-23T03:02:18;100185.16;;;19.52;48.49
85649;BME280;76075;52.476;13.124;2024-03-23T03:03:18;100175.81;;;19.52;48.47
85649;BME280;76075;52.476;13.124;2024-03-23T03:04:18;100177.91;;;19.51;48.31
85649;BME280;76075;52.476;13.124;2024-03-23T03:05:19;100171.44;;;19.51;48.26
85649;BME280;76075;52.476;13.124;2024-03-23T03:06:23;100176.53;;;19.52;48.29
85649;BME280;76075;52.476;13.124;2024-03-23T03:07:23;100169.31;;;19.51;48.41
85649;BME280;76075;52.476;13.124;2024-03-23T03:08:24;100175.03;;;19.51;48.37
85649;BME280;76075;52.476;13.124;2024-03-23T03:09:24;100177.19;;;19.51;48.50
85649;BME280;76075;52.476;13.124;2024-03-23T03:10:25;100178.69;;;19.52;48.36
85649;BME280;76075;52.476;13.124;2024-03-23T03:11:25;100179.31;;;19.50;48.38
85649;BME280;76075;52.476;13.124;2024-03-23T03:12:26;100176.44;;;19.50;48.39
85649;BME280;76075;52.476;13.124;2024-03-23T03:13:27;100179.31;;;19.50;48.43
85649;BME280;76075;52.476;13.124;2024-03-23T03:14:27;100170.72;;;19.50;48.50
85649;BME280;76075;52.476;13.124;2024-03-23T03:15:28;100167.84;;;19.50;48.49
85649;BME280;76075;52.476;13.124;2024-03-23T03:16:28;100167.84;;;19.50;48.34
85649;BME280;76075;52.476;13.124;2024-03-23T03:17:29;100164.25;;;19.50;48.44
85649;BME280;76075;52.476;13.124;2024-03-23T03:18:29;100164.97;;;19.50;48.39
85649;BME280;76075;52.476;13.124;2024-03-23T03:19:30;100161.38;;;19.50;48.40
85649;BME280;76075;52.476;13.124;2024-03-23T03:20:30;100164.25;;;19.50;48.29
85649;BME280;76075;52.476;13.124;2024-03-23T03:21:32;100163.47;;;19.49;48.33
85649;BME280;76075;52.476;13.124;2024-03-23T03:22:32;100167.75;;;19.48;48.42
85649;BME280;76075;52.476;13.124;2024-03-23T03:23:33;100169.22;;;19.49;48.38
85649;BME280;76075;52.476;13.124;2024-03-23T03:24:33;100163.47;;;19.49;48.15
85649;BME280;76075;52.476;13.124;2024-03-23T03:25:34;100157.72;;;19.49;48.29
85649;BME280;76075;52.476;13.124;2024-03-23T03:26:34;100147.66;;;19.48;48.40
85649;BME280;76075;52.476;13.124;2024-03-23T03:27:34;100144.78;;;19.48;48.47
85649;BME280;76075;52.476;13.124;2024-03-23T03:28:35;100149.06;;;19.47;48.44
85649;BME280;76075;52.476;13.124;2024-03-23T03:29:35;100143.31;;;19.47;48.26
85649;BME280;76075;52.476;13.124;2024-03-23T03:30:36;100143.31;;;19.47;48.35
85649;BME280;76075;52.476;13.124;2024-03-23T03:31:36;100149.06;;;19.47;48.38
85649;BME280;76075;52.476;13.124;2024-03-23T03:32:37;100144.06;;;19.48;48.28
85649;BME280;76075;52.476;13.124;2024-03-23T03:33:37;100154.81;;;19.47;48.38
85649;BME280;76075;52.476;13.124;2024-03-23T03:34:38;100147.66;;;19.48;48.40
85649;BME280;76075;52.476;13.124;2024-03-23T03:35:38;100153.31;;;19.46;48.40
85649;BME280;76075;52.476;13.124;2024-03-23T03:36:38;100149.06;;;19.47;48.27
85649;BME280;76075;52.476;13.124;2024-03-23T03:37:39;100149.06;;;19.47;48.33
85649;BME280;76075;52.476;13.124;2024-03-23T03:38:39;100153.41;;;19.48;48.33
85649;BME280;76075;52.476;13.124;2024-03-23T03:39:40;100150.53;;;19.48;48.33
85649;BME280;76075;52.476;13.124;2024-03-23T03:40:41;100143.38;;;19.49;48.27
85649;BME280;76075;52.476;13.124;2024-03-23T03:41:42;100147.75;;;19.50;48.25
85649;BME280;76075;52.476;13.124;2024-03-23T03:42:42;100143.47;;;19.51;48.36
85649;BME280;76075;52.476;13.124;2024-03-23T03:43:42;100144.94;;;19.52;48.29
85649;BME280;76075;52.476;13.124;2024-03-23T03:44:43;100144.94;;;19.52;48.30
85649;BME280;76075;52.476;13.124;2024-03-23T03:45:50;100139.94;;;19.53;48.16
85649;BME280;76075;52.476;13.124;2024-03-23T03:46:51;100139.22;;;19.52;48.15
85649;BME280;76075;52.476;13.124;2024-03-23T03:47:51;100140.66;;;19.53;48.11
85649;BME280;76075;52.476;13.124;2024-03-23T03:48:52;100134.94;;;19.53;48.21
85649;BME280;76075;52.476;13.124;2024-03-23T03:49:52;100134.28;;;19.55;48.32
85649;BME280;76075;52.476;13.124;2024-03-23T03:50:52;100130.66;;;19.54;48.09
85649;BME280;76075;52.476;13.124;2024-03-23T03:51:53;100143.63;;;19.55;48.16
85649;BME280;76075;52.476;13.124;2024-03-23T03:52:53;100137.97;;;19.57;47.97
85649;BME280;76075;52.476;13.124;2024-03-23T03:53:54;100137.97;;;19.57;48.09
85649;BME280;76075;52.476;13.124;2024-03-23T03:54:59;100122.13;;;19.56;48.03
85649;BME280;76075;52.476;13.124;2024-03-23T03:56:01;100129.34;;;19.57;48.10
85649;BME280;76075;52.476;13.124;2024-03-23T03:57:02;100118.59;;;19.58;48.02
85649;BME280;76075;52.476;13.124;2024-03-23T03:58:03;100122.19;;;19.58;47.97
85649;BME280;76075;52.476;13.124;2024-03-23T03:59:05;100122.19;;;19.58;48.04
85649;BME280;76075;52.476;13.124;2024-03-23T04:00:05;100124.34;;;19.58;48.00
85649;BME280;76075;52.476;13.124;2024-03-23T04:01:06;100125.81;;;19.59;48.06
85649;BME280;76075;52.476;13.124;2024-03-23T04:02:06;100125.06;;;19.58;47.94
85649;BME280;76075;52.476;13.124;2024-03-23T04:03:07;100132.28;;;19.59;48.01
85649;BME280;76075;52.476;13.124;2024-03-23T04:04:07;100129.34;;;19.57;48.04
85649;BME280;76075;52.476;13.124;2024-03-23T04:05:07;100125.06;;;19.58;47.87
85649;BME280;76075;52.476;13.124;2024-03-23T04:06:08;100130.81;;;19.58;48.09
85649;BME280;76075;52.476;13.124;2024-03-23T04:07:08;100130.81;;;19.58;48.09
85649;BME280;76075;52.476;13.124;2024-03-23T04:08:09;100132.28;;;19.59;48.27
85649;BME280;76075;52.476;13.124;2024-03-23T04:09:09;100130.81;;;19.58;48.09
85649;BME280;76075;52.476;13.124;2024-03-23T04:10:10;100128.69;;;19.59;48.20
85649;BME280;76075;52.476;13.124;2024-03-23T04:11:11;100135.91;;;19.60;48.21
85649;BME280;76075;52.476;13.124;2024-03-23T04:12:11;100132.28;;;19.59;48.10
85649;BME280;76075;52.476;13.124;2024-03-23T04:13:12;100133.75;;;19.60;48.17
85649;BME280;76075;52.476;13.124;2024-03-23T04:14:12;100131.56;;;19.59;48.06
85649;BME280;76075;52.476;13.124;2024-03-23T04:15:13;100128.00;;;19.60;48.07
85649;BME280;76075;52.476;13.124;2024-03-23T04:16:24;100125.13;;;19.60;48.01
85649;BME280;76075;52.476;13.124;2024-03-23T04:17:24;100124.41;;;19.60;48.10
85649;BME280;76075;52.476;13.124;2024-03-23T04:18:25;100122.28;;;19.60;48.00
85649;BME280;76075;52.476;13.124;2024-03-23T04:19:25;100122.28;;;19.60;48.11
85649;BME280;76075;52.476;13.124;2024-03-23T04:20:26;100119.41;;;19.60;48.18
85649;BME280;76075;52.476;13.124;2024-03-23T04:21:26;100117.28;;;19.61;48.04
85649;BME280;76075;52.476;13.124;2024-03-23T04:22:27;100120.88;;;19.61;48.09
85649;BME280;76075;52.476;13.124;2024-03-23T04:23:27;100116.59;;;19.62;48.16
85649;BME280;76075;52.476;13.124;2024-03-23T04:24:27;100113.72;;;19.62;48.03
85649;BME280;76075;52.476;13.124;2024-03-23T04:25:29;100109.47;;;19.63;47.99
85649;BME280;76075;52.476;13.124;2024-03-23T04:26:29;100105.84;;;19.63;48.17
85649;BME280;76075;52.476;13.124;2024-03-23T04:27:29;100100.88;;;19.63;48.26
85649;BME280;76075;52.476;13.124;2024-03-23T04:28:30;100106.59;;;19.63;48.29
85649;BME280;76075;52.476;13.124;2024-03-23T04:29:30;100108.00;;;19.62;48.30
85649;BME280;76075;52.476;13.124;2024-03-23T04:30:31;100113.72;;;19.62;48.19
85649;BME280;76075;52.476;13.124;2024-03-23T04:31:32;100108.06;;;19.64;48.10
85649;BME280;76075;52.476;13.124;2024-03-23T04:32:34;100102.25;;;19.62;48.15
85649;BME280;76075;52.476;13.124;2024-03-23T04:33:35;100103.72;;;19.63;48.11
85649;BME280;76075;52.476;13.124;2024-03-23T04:34:35;100092.25;;;19.63;48.08
85649;BME280;76075;52.476;13.124;2024-03-23T04:35:35;100098.00;;;19.63;48.16
85649;BME280;76075;52.476;13.124;2024-03-23T04:36:36;100101.59;;;19.64;48.20
85649;BME280;76075;52.476;13.124;2024-03-23T04:37:37;100104.47;;;19.64;48.23
85649;BME280;76075;52.476;13.124;2024-03-23T04:38:37;100103.72;;;19.63;48.07
85649;BME280;76075;52.476;13.124;2024-03-23T04:39:38;100101.59;;;19.64;48.22
85649;BME280;76075;52.476;13.124;2024-03-23T04:40:38;100092.25;;;19.63;48.08
85649;BME280;76075;52.476;13.124;2024-03-23T04:41:39;100095.13;;;19.63;48.33
85649;BME280;76075;52.476;13.124;2024-03-23T04:42:39;100087.97;;;19.64;48.27
85649;BME280;76075;52.476;13.124;2024-03-23T04:43:40;100086.50;;;19.63;48.28
85649;BME280;76075;52.476;13.124;2024-03-23T04:44:40;100086.50;;;19.63;48.29
85649;BME280;76075;52.476;13.124;2024-03-23T04:45:40;100084.34;;;19.64;48.20
85649;BME280;76075;52.476;13.124;2024-03-23T04:46:41;100089.38;;;19.63;48.29
85649;BME280;76075;52.476;13.124;2024-03-23T04:47:41;100087.97;;;19.64;48.27
85649;BME280;76075;52.476;13.124;2024-03-23T04:48:42;100087.97;;;19.64;48.37
85649;BME280;76075;52.476;13.124;2024-03-23T04:49:44;100087.97;;;19.64;48.26
85649;BME280;76075;52.476;13.124;2024-03-23T04:50:45;100082.22;;;19.64;48.22
85649;BME280;76075;52.476;13.124;2024-03-23T04:51:45;100079.34;;;19.64;48.38
85649;BME280;76075;52.476;13.124;2024-03-23T04:52:46;100080.84;;;19.65;48.23
85649;BME280;76075;52.476;13.124;2024-03-23T04:53:47;100077.97;;;19.65;48.39
85649;BME280;76075;52.476;13.124;2024-03-23T04:54:48;100069.34;;;19.65;48.37
85649;BME280;76075;52.476;13.124;2024-03-23T04:55:48;100072.94;;;19.66;48.27
85649;BME280;76075;52.476;13.124;2024-03-23T04:56:49;100079.44;;;19.66;48.46
85649;BME280;76075;52.476;13.124;2024-03-23T04:57:49;100073.69;;;19.66;48.62
85649;BME280;76075;52.476;13.124;2024-03-23T04:58:49;100080.16;;;19.67;48.49
85649;BME280;76075;52.476;13.124;2024-03-23T04:59:50;100080.16;;;19.67;48.54
85649;BME280;76075;52.476;13.124;2024-03-23T05:00:54;100079.44;;;19.66;48.55
85649;BME280;76075;52.476;13.124;2024-03-23T05:01:55;100080.25;;;19.69;48.31
85649;BME280;76075;52.476;13.124;2024-03-23T05:02:55;100076.66;;;19.69;48.25
85649;BME280;76075;52.476;13.124;2024-03-23T05:03:55;100076.66;;;19.69;48.26
85649;BME280;76075;52.476;13.124;2024-03-23T05:04:56;100069.41;;;19.67;48.36
85649;BME280;76075;52.476;13.124;2024-03-23T05:05:56;100070.91;;;19.69;48.59
85649;BME280;76075;52.476;13.124;2024-03-23T05:06:56;100060.16;;;19.69;48.52
85649;BME280;76075;52.476;13.124;2024-03-23T05:07:57;100063.75;;;19.70;48.40
85649;BME280;76075;52.476;13.124;2024-03-23T05:08:57;100059.44;;;19.69;48.53
85649;BME280;76075;52.476;13.124;2024-03-23T05:09:58;100059.44;;;19.69;48.45
85649;BME280;76075;52.476;13.124;2024-03-23T05:10:58;100063.03;;;19.69;48.38
85649;BME280;76075;52.476;13.124;2024-03-23T05:11:59;100063.75;;;19.70;48.39
85649;BME280;76075;52.476;13.124;2024-03-23T05:13:00;100062.31;;;19.69;48.45
85649;BME280;76075;52.476;13.124;2024-03-23T05:14:01;100065.16;;;19.69;48.41
85649;BME280;76075;52.476;13.124;2024-03-23T05:15:04;100063.75;;;19.70;48.39
85649;BME280;76075;52.476;13.124;2024-03-23T05:16:04;100061.66;;;19.70;48.37
85649;BME280;76075;52.476;13.124;2024-03-23T05:17:05;100069.50;;;19.70;48.40
85649;BME280;76075;52.476;13.124;2024-03-23T05:18:05;100068.13;;;19.71;48.43
85649;BME280;76075;52.476;13.124;2024-03-23T05:19:06;100063.84;;;19.72;48.38
85649;BME280;76075;52.476;13.124;2024-03-23T05:20:06;100059.56;;;19.73;48.51
85649;BME280;76075;52.476;13.124;2024-03-23T05:21:09;100058.81;;;19.72;48.40
85649;BME280;76075;52.476;13.124;2024-03-23T05:22:10;100066.06;;;19.73;48.50
85649;BME280;76075;52.476;13.124;2024-03-23T05:23:10;100056.78;;;19.75;48.50
85649;BME280;76075;52.476;13.124;2024-03-23T05:24:11;100061.03;;;19.74;48.62
85649;BME280;76075;52.476;13.124;2024-03-23T05:25:12;100050.28;;;19.74;48.43
85649;BME280;76075;52.476;13.124;2024-03-23T05:26:12;100059.66;;;19.75;48.50
85649;BME280;76075;52.476;13.124;2024-03-23T05:27:13;100058.91;;;19.74;48.63
85649;BME280;76075;52.476;13.124;2024-03-23T05:28:13;100043.06;;;19.73;48.46
85649;BME280;76075;52.476;13.124;2024-03-23T05:29:14;100054.56;;;19.73;48.63
85649;BME280;76075;52.476;13.124;2024-03-23T05:30:14;100049.53;;;19.74;48.72
85649;BME280;76075;52.476;13.124;2024-03-23T05:31:27;100043.81;;;19.74;48.64
85649;BME280;76075;52.476;13.124;2024-03-23T05:32:28;100039.47;;;19.73;48.58
85649;BME280;76075;52.476;13.124;2024-03-23T05:33:28;100040.19;;;19.73;48.68
85649;BME280;76075;52.476;13.124;2024-03-23T05:34:28;100037.31;;;19.73;48.71
85649;BME280;76075;52.476;13.124;2024-03-23T05:35:29;100031.59;;;19.73;48.66
85649;BME280;76075;52.476;13.124;2024-03-23T05:36:30;100042.34;;;19.73;48.55
85649;BME280;76075;52.476;13.124;2024-03-23T05:37:30;100031.59;;;19.73;48.70
85649;BME280;76075;52.476;13.124;2024-03-23T05:38:34;100027.97;;;19.73;48.71
85649;BME280;76075;52.476;13.124;2024-03-23T05:39:34;100025.09;;;19.73;48.66
85649;BME280;76075;52.476;13.124;2024-03-23T05:40:34;100019.38;;;19.73;48.84
85649;BME280;76075;52.476;13.124;2024-03-23T05:41:37;100016.41;;;19.71;48.74
85649;BME280;76075;52.476;13.124;2024-03-23T05:42:37;100013.63;;;19.73;48.54
85649;BME280;76075;52.476;13.124;2024-03-23T05:43:38;100026.56;;;19.74;48.72
85649;BME280;76075;52.476;13.124;2024-03-23T05:44:38;100030.16;;;19.74;48.65
85649;BME280;76075;52.476;13.124;2024-03-23T05:45:39;100017.94;;;19.74;48.80
85649;BME280;76075;52.476;13.124;2024-03-23T05:46:41;100020.09;;;19.73;48.64
85649;BME280;76075;52.476;13.124;2024-03-23T05:47:41;100021.56;;;19.74;48.79
85649;BME280;76075;52.476;13.124;2024-03-23T05:48:42;100016.56;;;19.75;48.56
85649;BME280;76075;52.476;13.124;2024-03-23T05:49:42;100016.56;;;19.75;48.73
85649;BME280;76075;52.476;13.124;2024-03-23T05:50:43;100009.34;;;19.74;48.85
85649;BME280;76075;52.476;13.124;2024-03-23T05:51:43;100009.41;;;19.76;48.56
85649;BME280;76075;52.476;13.124;2024-03-23T05:52:44;100013.00;;;19.76;48.60
85649;BME280;76075;52.476;13.124;2024-03-23T05:53:44;100008.00;;;19.77;48.80
85649;BME280;76075;52.476;13.124;2024-03-23T05:54:45;100005.13;;;19.77;48.74
85649;BME280;76075;52.476;13.124;2024-03-23T05:55:45;100003.75;;;19.78;48.66
85649;BME280;76075;52.476;13.124;2024-03-23T05:56:47;100009.47;;;19.78;48.71
85649;BME280;76075;52.476;13.124;2024-03-23T05:57:48;99998.72;;;19.78;48.70
85649;BME280;76075;52.476;13.124;2024-03-23T05:58:48;99993.72;;;19.79;48.83
85649;BME280;76075;52.476;13.124;2024-03-23T05:59:49;99987.22;;;19.78;48.77
85649;BME280;76075;52.476;13.124;2024-03-23T06:00:49;99989.38;;;19.78;48.75
85649;BME280;76075;52.476;13.124;2024-03-23T06:01:57;99983.63;;;19.78;48.90
85649;BME280;76075;52.476;13.124;2024-03-23T06:02:57;99981.50;;;19.78;48.71
85649;BME280;76075;52.476;13.124;2024-03-23T06:03:57;99983.63;;;19.78;48.84
85649;BME280;76075;52.476;13.124;2024-03-23T06:04:58;99987.22;;;19.78;48.64
85649;BME280;76075;52.476;13.124;2024-03-23T06:05:58;99986.50;;;19.78;48.96
85649;BME280;76075;52.476;13.124;2024-03-23T06:06:59;99986.50;;;19.78;48.93